createdAt,value
2018-09-23T00:01:26.589Z,27.20
2018-09-23T00:03:55.082Z,27.20
2018-09-23T00:06:23.724Z,26.90
2018-09-23T00:08:52.158Z,27.00
2018-09-23T00:11:20.548Z,27.10
2018-09-23T00:13:48.958Z,27.20
2018-09-23T00:16:17.332Z,27.00
2018-09-23T00:18:45.878Z,26.90
2018-09-23T00:21:14.300Z,27.00
2018-09-23T00:23:42.685Z,26.70
2018-09-23T00:26:11.182Z,26.90
2018-09-23T00:28:39.720Z,26.70
2018-09-23T00:31:08.102Z,26.70
2018-09-23T00:33:36.507Z,26.70
2018-09-23T00:36:04.828Z,26.80
2018-09-23T00:38:33.310Z,26.80
2018-09-23T00:41:01.680Z,26.80
2018-09-23T00:43:30.011Z,26.80
2018-09-23T00:45:58.576Z,26.60
2018-09-23T00:48:26.974Z,26.60
2018-09-23T00:50:55.484Z,26.80
2018-09-23T00:53:23.978Z,26.70
2018-09-23T00:55:52.373Z,26.60
2018-09-23T00:58:20.780Z,26.50
2018-09-23T01:00:49.958Z,26.50
2018-09-23T01:03:18.418Z,26.80
2018-09-23T01:05:46.822Z,27.10
2018-09-23T01:08:15.236Z,26.40
2018-09-23T01:10:43.632Z,26.40
2018-09-23T01:13:12.042Z,26.50
2018-09-23T01:15:40.565Z,26.40
2018-09-23T01:18:09.054Z,26.40
2018-09-23T01:20:37.589Z,26.60
2018-09-23T01:23:09.360Z,26.40
2018-09-23T01:25:38.156Z,26.40
2018-09-23T01:28:06.652Z,26.50
2018-09-23T01:30:35.032Z,26.30
2018-09-23T01:33:03.454Z,26.20
2018-09-23T01:35:31.864Z,26.30
2018-09-23T01:38:00.209Z,26.20
2018-09-23T01:40:28.681Z,26.30
2018-09-23T01:42:57.111Z,26.20
2018-09-23T01:45:25.460Z,26.20
2018-09-23T01:47:53.953Z,26.30
2018-09-23T01:50:22.415Z,26.30
2018-09-23T01:52:50.804Z,26.20
2018-09-23T01:55:19.220Z,26.40
2018-09-23T01:57:47.650Z,26.40
2018-09-23T02:00:16.008Z,26.50
2018-09-23T02:02:44.512Z,26.50
2018-09-23T02:05:13.064Z,26.60
2018-09-23T02:07:41.470Z,26.80
2018-09-23T02:10:09.920Z,27.00
2018-09-23T02:12:38.261Z,26.90
2018-09-23T02:15:06.856Z,26.80
2018-09-23T02:17:35.202Z,26.80
2018-09-23T02:20:03.662Z,26.70
2018-09-23T02:22:32.023Z,27.10
2018-09-23T02:25:00.564Z,26.80
2018-09-23T02:27:28.908Z,26.70
2018-09-23T02:29:57.502Z,27.00
2018-09-23T02:32:25.857Z,26.90
2018-09-23T02:34:54.306Z,27.10
2018-09-23T02:37:22.698Z,27.30
2018-09-23T02:39:51.314Z,27.30
2018-09-23T02:42:19.772Z,27.40
2018-09-23T02:44:48.429Z,27.50
2018-09-23T02:47:16.779Z,27.70
2018-09-23T02:49:45.394Z,27.80
2018-09-23T02:52:13.794Z,27.80
2018-09-23T02:54:42.419Z,28.10
2018-09-23T02:57:10.790Z,28.20
2018-09-23T02:59:39.212Z,28.40
2018-09-23T03:02:07.823Z,28.20
2018-09-23T03:04:36.283Z,28.00
2018-09-23T03:07:04.684Z,28.30
2018-09-23T03:09:33.066Z,28.40
2018-09-23T03:12:01.530Z,28.70
2018-09-23T03:14:30.943Z,28.60
2018-09-23T03:16:59.559Z,28.80
2018-09-23T03:19:28.291Z,29.30
2018-09-23T03:21:56.694Z,28.60
2018-09-23T03:24:25.098Z,28.70
2018-09-23T03:26:53.560Z,28.80
2018-09-23T03:29:21.990Z,28.90
2018-09-23T03:31:50.355Z,28.90
2018-09-23T03:34:18.764Z,29.60
2018-09-23T03:36:47.176Z,28.90
2018-09-23T03:39:15.662Z,28.80
2018-09-23T03:41:44.060Z,29.10
2018-09-23T03:44:12.465Z,29.00
2018-09-23T03:46:40.828Z,29.10
2018-09-23T03:49:09.306Z,29.40
2018-09-23T03:51:37.721Z,29.20
2018-09-23T03:54:06.277Z,29.70
2018-09-23T03:56:34.845Z,29.40
2018-09-23T03:59:03.362Z,29.10
2018-09-23T04:01:31.787Z,28.90
2018-09-23T04:04:00.235Z,29.10
2018-09-23T04:06:28.649Z,29.00
2018-09-23T04:08:57.283Z,29.30
2018-09-23T04:11:25.758Z,29.30
2018-09-23T04:13:54.119Z,29.80
2018-09-23T04:16:22.559Z,30.00
2018-09-23T04:18:50.957Z,29.70
2018-09-23T04:21:19.453Z,29.60
2018-09-23T04:23:47.867Z,29.70
2018-09-23T04:26:16.277Z,29.50
2018-09-23T04:28:44.705Z,29.70
2018-09-23T04:31:13.279Z,29.70
2018-09-23T04:33:41.792Z,29.80
2018-09-23T04:36:10.149Z,29.80
2018-09-23T04:38:38.641Z,29.80
2018-09-23T04:41:07.059Z,29.70
2018-09-23T04:43:35.601Z,30.20
2018-09-23T04:46:04.051Z,29.70
2018-09-23T04:48:32.502Z,29.70
2018-09-23T04:51:01.117Z,29.80
2018-09-23T04:53:29.820Z,29.70
2018-09-23T04:55:58.256Z,29.80
2018-09-23T04:58:26.748Z,29.80
2018-09-23T05:00:55.105Z,29.80
2018-09-23T05:03:24.077Z,29.80
2018-09-23T05:05:52.432Z,29.70
2018-09-23T05:08:20.878Z,29.70
2018-09-23T05:10:49.716Z,29.80
2018-09-23T05:13:18.247Z,29.70
2018-09-23T05:15:46.638Z,29.70
2018-09-23T05:18:15.129Z,29.80
2018-09-23T05:20:43.645Z,29.80
2018-09-23T05:23:12.073Z,29.80
2018-09-23T05:25:40.502Z,29.70
2018-09-23T05:28:08.886Z,29.80
2018-09-23T05:30:37.263Z,29.70
2018-09-23T05:33:05.672Z,29.80
2018-09-23T05:35:34.179Z,29.80
2018-09-23T05:38:02.590Z,29.80
2018-09-23T05:40:30.991Z,29.80
2018-09-23T05:42:59.479Z,29.80
2018-09-23T05:45:27.831Z,29.80
2018-09-23T05:47:56.302Z,29.90
2018-09-23T05:50:24.697Z,30.70
2018-09-23T05:52:53.117Z,31.30
2018-09-23T05:55:21.633Z,32.10
2018-09-23T05:57:50.059Z,32.50
2018-09-23T06:00:18.859Z,33.70
2018-09-23T06:02:47.225Z,33.70
2018-09-23T06:05:15.580Z,35.50
2018-09-23T06:07:43.968Z,36.10
2018-09-23T06:10:12.346Z,36.10
2018-09-23T06:12:40.891Z,36.10
2018-09-23T06:15:09.310Z,36.10
2018-09-23T06:17:37.745Z,36.10
2018-09-23T06:20:06.189Z,36.10
2018-09-23T06:22:34.670Z,36.00
2018-09-23T06:25:03.079Z,36.00
2018-09-23T06:27:31.411Z,36.70
2018-09-23T06:29:59.881Z,36.10
2018-09-23T06:32:28.255Z,36.10
2018-09-23T06:34:56.734Z,35.40
2018-09-23T06:37:25.147Z,35.00
2018-09-23T06:39:53.559Z,35.40
2018-09-23T06:42:21.906Z,35.50
2018-09-23T06:44:50.336Z,36.10
2018-09-23T06:47:18.764Z,36.20
2018-09-23T06:49:47.122Z,37.20
2018-09-23T06:52:15.494Z,36.10
2018-09-23T06:54:43.862Z,35.50
2018-09-23T06:57:12.382Z,35.30
2018-09-23T06:59:40.926Z,35.10
2018-09-23T07:02:09.671Z,34.30
2018-09-23T07:04:38.494Z,35.10
2018-09-23T07:07:07.015Z,34.60
2018-09-23T07:09:35.436Z,34.80
2018-09-23T07:12:04.229Z,33.90
2018-09-23T07:14:32.908Z,35.50
2018-09-23T07:17:01.616Z,34.90
2018-09-23T07:19:30.050Z,35.20
2018-09-23T07:21:58.574Z,36.00
2018-09-23T07:24:27.010Z,36.10
2018-09-23T07:26:55.810Z,36.80
2018-09-23T07:29:24.278Z,37.00
2018-09-23T07:31:52.740Z,37.60
2018-09-23T07:34:21.246Z,37.00
2018-09-23T07:36:49.885Z,37.60
2018-09-23T07:39:18.188Z,36.30
2018-09-23T07:41:46.640Z,36.60
2018-09-23T07:44:15.143Z,37.10
2018-09-23T07:46:43.560Z,37.10
2018-09-23T07:49:11.965Z,37.40
2018-09-23T07:51:40.321Z,37.50
2018-09-23T07:54:08.789Z,37.30
2018-09-23T07:56:37.328Z,37.30
2018-09-23T07:59:05.767Z,37.20
2018-09-23T08:01:34.108Z,37.30
2018-09-23T08:04:02.548Z,37.40
2018-09-23T08:06:30.973Z,36.90
2018-09-23T08:08:59.426Z,37.00
2018-09-23T08:11:27.866Z,36.40
2018-09-23T08:13:56.593Z,37.50
2018-09-23T08:16:24.782Z,37.00
2018-09-23T08:18:53.316Z,36.80
2018-09-23T08:21:21.751Z,37.00
2018-09-23T08:23:50.187Z,36.50
2018-09-23T08:26:18.621Z,36.00
2018-09-23T08:28:46.974Z,36.90
2018-09-23T08:31:15.468Z,36.70
2018-09-23T08:33:43.866Z,35.90
2018-09-23T08:36:12.257Z,36.90
2018-09-23T08:38:40.614Z,36.50
2018-09-23T08:41:09.070Z,36.40
2018-09-23T08:43:37.469Z,36.50
2018-09-23T08:46:05.912Z,35.90
2018-09-23T08:48:34.346Z,36.60
2018-09-23T08:51:02.732Z,36.60
2018-09-23T08:53:31.104Z,36.60
2018-09-23T08:55:59.572Z,35.90
2018-09-23T08:58:28.008Z,35.90
2018-09-23T09:00:56.415Z,36.30
2018-09-23T09:03:24.914Z,36.30
2018-09-23T09:05:53.503Z,35.90
2018-09-23T09:08:21.889Z,35.90
2018-09-23T09:10:50.254Z,36.10
2018-09-23T09:13:18.715Z,35.90
2018-09-23T09:15:47.131Z,35.80
2018-09-23T09:18:15.522Z,35.90
2018-09-23T09:20:43.971Z,35.90
2018-09-23T09:23:12.421Z,35.90
2018-09-23T09:25:40.776Z,35.80
2018-09-23T09:28:09.212Z,35.80
2018-09-23T09:30:37.622Z,35.80
2018-09-23T09:33:06.157Z,35.80
2018-09-23T09:35:34.536Z,35.80
2018-09-23T09:38:03.089Z,35.90
2018-09-23T09:40:31.545Z,35.90
2018-09-23T09:42:59.981Z,35.90
2018-09-23T09:45:28.333Z,35.90
2018-09-23T09:47:56.787Z,35.90
2018-09-23T09:50:25.195Z,35.90
2018-09-23T09:52:53.608Z,35.90
2018-09-23T09:55:22.089Z,35.90
2018-09-23T09:57:50.449Z,35.90
2018-09-23T10:00:24.241Z,35.90
2018-09-23T10:02:52.627Z,35.90
2018-09-23T10:05:21.003Z,35.90
2018-09-23T10:07:50.183Z,36.20
2018-09-23T10:10:19.003Z,35.90
2018-09-23T10:12:47.513Z,35.90
2018-09-23T10:15:16.077Z,35.90
2018-09-23T10:17:44.725Z,35.90
2018-09-23T10:20:13.187Z,35.90
2018-09-23T10:22:41.709Z,35.90
2018-09-23T10:25:10.139Z,35.90
2018-09-23T10:27:38.569Z,36.00
2018-09-23T10:30:07.929Z,35.90
2018-09-23T10:32:36.389Z,35.90
2018-09-23T10:35:04.777Z,37.00
2018-09-23T10:37:33.208Z,36.00
2018-09-23T10:40:01.775Z,36.40
2018-09-23T10:42:30.171Z,36.00
2018-09-23T10:44:58.633Z,36.20
2018-09-23T10:47:26.989Z,35.40
2018-09-23T10:49:55.361Z,35.90
2018-09-23T10:52:23.900Z,35.90
2018-09-23T10:54:52.287Z,37.00
2018-09-23T10:57:20.841Z,36.30
2018-09-23T10:59:49.241Z,36.30
2018-09-23T11:02:17.732Z,35.90
2018-09-23T11:04:46.149Z,35.90
2018-09-23T11:07:14.581Z,35.90
2018-09-23T11:09:43.008Z,36.00
2018-09-23T11:12:11.376Z,36.40
2018-09-23T11:14:39.760Z,36.00
2018-09-23T11:17:08.122Z,36.70
2018-09-23T11:19:36.653Z,36.00
2018-09-23T11:22:05.004Z,36.00
2018-09-23T11:24:33.556Z,36.00
2018-09-23T11:27:01.961Z,36.00
2018-09-23T11:29:30.470Z,36.00
2018-09-23T11:31:58.923Z,36.00
2018-09-23T11:34:29.571Z,36.00
2018-09-23T11:36:57.961Z,36.60
2018-09-23T11:39:26.307Z,36.70
2018-09-23T11:41:54.813Z,35.90
2018-09-23T11:44:23.225Z,36.00
2018-09-23T11:46:51.591Z,36.00
2018-09-23T11:49:20.076Z,35.50
2018-09-23T11:51:48.471Z,36.00
2018-09-23T11:54:16.885Z,36.00
2018-09-23T11:56:45.275Z,36.00
2018-09-23T11:59:13.625Z,36.00
2018-09-23T12:01:41.976Z,36.00
2018-09-23T12:04:10.375Z,36.20
2018-09-23T12:06:38.809Z,36.00
2018-09-23T12:09:09.241Z,36.00
2018-09-23T12:11:37.608Z,36.00
2018-09-23T12:14:06.017Z,36.10
2018-09-23T12:16:34.567Z,36.00
2018-09-23T12:19:02.893Z,36.20
2018-09-23T12:21:31.419Z,36.00
2018-09-23T12:23:59.768Z,36.70
2018-09-23T12:26:28.210Z,36.40
2018-09-23T12:28:56.591Z,36.00
2018-09-23T12:31:24.952Z,36.00
2018-09-23T12:33:53.366Z,36.20
2018-09-23T12:36:21.827Z,36.00
2018-09-23T12:38:50.198Z,36.00
2018-09-23T12:41:18.655Z,37.40
2018-09-23T12:43:47.161Z,36.20
2018-09-23T12:46:15.642Z,36.00
2018-09-23T12:48:44.091Z,36.50
2018-09-23T12:51:12.477Z,36.30
2018-09-23T12:53:40.869Z,36.00
2018-09-23T12:56:09.283Z,36.00
2018-09-23T12:58:37.701Z,36.30
2018-09-23T13:01:06.087Z,36.00
2018-09-23T13:03:34.596Z,36.90
2018-09-23T13:06:03.080Z,36.00
2018-09-23T13:08:31.471Z,37.00
2018-09-23T13:10:59.836Z,36.90
2018-09-23T13:13:28.432Z,36.90
2018-09-23T13:15:56.891Z,36.90
2018-09-23T13:18:25.292Z,36.70
2018-09-23T13:20:53.711Z,36.00
2018-09-23T13:23:24.589Z,36.60
2018-09-23T13:25:53.103Z,37.10
2018-09-23T13:28:21.634Z,36.90
2018-09-23T13:30:50.042Z,36.30
2018-09-23T13:33:18.482Z,36.40
2018-09-23T13:35:46.863Z,36.70
2018-09-23T13:38:15.240Z,36.60
2018-09-23T13:40:43.593Z,36.00
2018-09-23T13:43:12.020Z,36.00
2018-09-23T13:45:40.356Z,36.10
2018-09-23T13:48:08.786Z,36.10
2018-09-23T13:50:37.200Z,36.10
2018-09-23T13:53:05.549Z,36.10
2018-09-23T13:55:33.891Z,36.10
2018-09-23T13:58:02.283Z,36.10
2018-09-23T14:00:30.681Z,36.10
2018-09-23T14:02:59.192Z,36.10
2018-09-23T14:05:27.634Z,36.10
2018-09-23T14:07:56.145Z,36.10
2018-09-23T14:10:24.575Z,36.10
2018-09-23T14:12:53.004Z,36.10
2018-09-23T14:15:21.355Z,36.10
2018-09-23T14:17:49.842Z,36.10
2018-09-23T14:20:18.243Z,36.10
2018-09-23T14:22:46.616Z,36.10
2018-09-23T14:25:15.019Z,36.10
2018-09-23T14:27:43.420Z,36.10
2018-09-23T14:30:11.799Z,36.10
2018-09-23T14:32:40.220Z,36.10
2018-09-23T14:35:08.602Z,36.10
2018-09-23T14:37:37.075Z,36.10
2018-09-23T14:40:05.490Z,36.10
2018-09-23T14:42:33.967Z,36.10
2018-09-23T14:45:02.338Z,36.20
2018-09-23T14:47:30.655Z,36.20
2018-09-23T14:49:59.097Z,36.20
2018-09-23T14:52:27.462Z,36.20
2018-09-23T14:54:56.047Z,36.20
2018-09-23T14:57:24.271Z,36.10
2018-09-23T14:59:54.366Z,36.20
2018-09-23T15:02:21.053Z,36.20
2018-09-23T15:04:49.426Z,36.10
2018-09-23T15:07:17.940Z,36.20
2018-09-23T15:09:46.310Z,36.20
2018-09-23T15:12:14.803Z,36.20
2018-09-23T15:14:43.238Z,36.20
2018-09-23T15:17:11.842Z,36.20
2018-09-23T15:19:40.226Z,36.20
2018-09-23T15:22:09.155Z,36.20
2018-09-23T15:24:37.574Z,36.20
2018-09-23T15:27:06.201Z,36.10
2018-09-23T15:29:34.595Z,36.10
2018-09-23T15:32:03.139Z,36.10
2018-09-23T15:34:31.538Z,36.10
2018-09-23T15:36:59.949Z,36.10
2018-09-23T15:39:28.347Z,36.10
2018-09-23T15:41:56.705Z,36.10
2018-09-23T15:44:25.045Z,36.10
2018-09-23T15:46:53.665Z,36.10
2018-09-23T15:49:22.019Z,36.10
2018-09-23T15:51:50.475Z,36.10
2018-09-23T15:54:18.939Z,36.10
2018-09-23T15:56:47.333Z,36.10
2018-09-23T15:59:15.857Z,36.10
2018-09-23T16:01:44.263Z,36.10
2018-09-23T16:04:12.591Z,36.10
2018-09-23T16:06:41.000Z,36.10
2018-09-23T16:09:10.033Z,36.10
2018-09-23T16:11:38.843Z,36.20
2018-09-23T16:14:07.350Z,36.10
2018-09-23T16:16:35.781Z,36.20
2018-09-23T16:19:04.256Z,36.40
2018-09-23T16:21:32.779Z,36.10
2018-09-23T16:24:01.252Z,36.10
2018-09-23T16:26:29.717Z,38.00
2018-09-23T16:28:58.173Z,38.00
2018-09-23T16:31:26.630Z,40.30
2018-09-23T16:33:55.421Z,41.90
2018-09-23T16:36:23.920Z,41.90
2018-09-23T16:38:52.373Z,42.90
2018-09-23T16:41:20.762Z,41.90
2018-09-23T16:43:49.207Z,41.80
2018-09-23T16:46:17.923Z,40.30
2018-09-23T16:48:46.600Z,40.90
2018-09-23T16:51:15.127Z,40.20
2018-09-23T16:53:43.566Z,41.90
2018-09-23T16:56:12.036Z,42.10
2018-09-23T16:58:40.579Z,41.30
2018-09-23T17:01:09.118Z,42.10
2018-09-23T17:03:37.572Z,40.80
2018-09-23T17:06:06.147Z,41.90
2018-09-23T17:08:35.533Z,40.30
2018-09-23T17:11:03.977Z,39.90
2018-09-23T17:13:32.454Z,41.10
2018-09-23T17:16:00.902Z,40.90
2018-09-23T17:18:29.483Z,42.10
2018-09-23T17:20:57.987Z,42.10
2018-09-23T17:23:26.386Z,42.10
2018-09-23T17:25:54.925Z,42.10
2018-09-23T17:28:23.464Z,41.10
2018-09-23T17:30:51.772Z,42.10
2018-09-23T17:33:20.175Z,42.20
2018-09-23T17:35:48.733Z,42.00
2018-09-23T17:38:17.121Z,41.20
2018-09-23T17:40:45.530Z,40.90
2018-09-23T17:43:14.145Z,41.30
2018-09-23T17:45:42.640Z,41.20
2018-09-23T17:48:11.205Z,41.00
2018-09-23T17:50:39.570Z,41.60
2018-09-23T17:53:08.021Z,41.20
2018-09-23T17:55:36.662Z,41.00
2018-09-23T17:58:05.000Z,41.10
2018-09-23T18:00:33.430Z,40.90
2018-09-23T18:03:02.073Z,41.10
2018-09-23T18:05:30.487Z,40.60
2018-09-23T18:07:58.911Z,40.40
2018-09-23T18:10:27.254Z,40.30
2018-09-23T18:12:55.807Z,40.70
2018-09-23T18:15:24.229Z,42.30
2018-09-23T18:17:52.798Z,42.30
2018-09-23T18:20:21.236Z,42.30
2018-09-23T18:22:49.601Z,42.30
2018-09-23T18:25:18.044Z,42.40
2018-09-23T18:27:46.455Z,42.30
2018-09-23T18:30:14.947Z,42.30
2018-09-23T18:32:43.411Z,42.20
2018-09-23T18:35:11.819Z,42.30
2018-09-23T18:37:40.350Z,42.20
2018-09-23T18:40:08.786Z,42.20
2018-09-23T18:42:37.523Z,42.30
2018-09-23T18:45:06.117Z,42.20
2018-09-23T18:47:34.725Z,42.20
2018-09-23T18:50:03.171Z,42.10
2018-09-23T18:52:31.571Z,41.50
2018-09-23T18:55:05.268Z,42.20
2018-09-23T18:57:33.794Z,42.20
2018-09-23T19:00:02.179Z,42.20
2018-09-23T19:02:30.577Z,42.20
2018-09-23T19:04:59.089Z,42.20
2018-09-23T19:07:27.513Z,42.20
2018-09-23T19:09:55.901Z,42.20
2018-09-23T19:12:24.344Z,42.20
2018-09-23T19:14:52.771Z,42.20
2018-09-23T19:17:21.376Z,42.20
2018-09-23T19:19:55.503Z,42.20
2018-09-23T19:22:29.285Z,42.20
2018-09-23T19:24:57.796Z,41.10
2018-09-23T19:27:26.181Z,42.20
2018-09-23T19:29:54.564Z,42.20
2018-09-23T19:32:22.953Z,42.20
2018-09-23T19:34:51.406Z,42.20
2018-09-23T19:37:19.780Z,42.20
2018-09-23T19:39:48.328Z,42.20
2018-09-23T19:42:16.805Z,42.00
2018-09-23T19:44:45.357Z,42.00
2018-09-23T19:47:13.931Z,42.10
2018-09-23T19:49:42.305Z,41.80
2018-09-23T19:52:11.194Z,40.60
2018-09-23T19:54:39.727Z,41.60
2018-09-23T19:57:08.244Z,41.60
2018-09-23T19:59:36.677Z,41.80
2018-09-23T20:02:05.143Z,41.20
2018-09-23T20:04:33.644Z,41.30
2018-09-23T20:07:02.146Z,41.10
2018-09-23T20:09:30.427Z,41.70
2018-09-23T20:11:58.802Z,41.50
2018-09-23T20:14:27.175Z,41.20
2018-09-23T20:16:55.595Z,41.40
2018-09-23T20:19:23.986Z,41.10
2018-09-23T20:21:52.412Z,41.10
2018-09-23T20:24:20.872Z,40.60
2018-09-23T20:26:49.397Z,41.00
2018-09-23T20:29:17.849Z,41.20
2018-09-23T20:31:46.223Z,40.60
2018-09-23T20:34:14.666Z,40.90
2018-09-23T20:36:43.419Z,40.80
2018-09-23T20:39:11.893Z,40.90
2018-09-23T20:41:40.513Z,40.90
2018-09-23T20:44:08.877Z,40.70
2018-09-23T20:46:37.391Z,40.90
2018-09-23T20:49:05.813Z,40.90
2018-09-23T20:51:34.205Z,41.00
2018-09-23T20:54:02.643Z,40.90
2018-09-23T20:56:31.071Z,41.00
2018-09-23T20:58:59.508Z,40.90
2018-09-23T21:01:27.972Z,41.00
2018-09-23T21:03:56.332Z,40.80
2018-09-23T21:06:24.757Z,40.60
2018-09-23T21:08:53.333Z,40.90
2018-09-23T21:11:21.732Z,41.00
2018-09-23T21:13:50.217Z,41.60
2018-09-23T21:16:18.669Z,42.10
2018-09-23T21:18:47.013Z,41.60
2018-09-23T21:21:15.453Z,41.50
2018-09-23T21:23:43.901Z,42.00
2018-09-23T21:26:12.456Z,41.90
2018-09-23T21:28:40.866Z,41.90
2018-09-23T21:31:09.461Z,41.40
2018-09-23T21:33:37.867Z,41.00
2018-09-23T21:36:06.225Z,41.00
2018-09-23T21:38:34.783Z,41.50
2018-09-23T21:41:03.144Z,41.00
2018-09-23T21:43:32.496Z,40.90
2018-09-23T21:46:00.887Z,40.70
2018-09-23T21:48:29.314Z,40.60
2018-09-23T21:50:57.903Z,40.50
2018-09-23T21:53:26.341Z,40.40
2018-09-23T21:55:54.963Z,40.30
2018-09-23T21:58:23.379Z,40.50
2018-09-23T22:00:51.836Z,40.20
2018-09-23T22:03:20.323Z,40.20
2018-09-23T22:05:48.733Z,40.50
2018-09-23T22:08:17.285Z,40.00
2018-09-23T22:10:47.541Z,40.20
2018-09-23T22:13:15.979Z,40.40
2018-09-23T22:15:44.552Z,40.70
2018-09-23T22:18:17.277Z,40.50
2018-09-23T22:20:45.800Z,40.30
2018-09-23T22:23:14.314Z,40.20
2018-09-23T22:25:42.670Z,40.40
2018-09-23T22:28:11.077Z,40.20
2018-09-23T22:30:39.450Z,40.30
2018-09-23T22:33:07.959Z,40.20
2018-09-23T22:35:36.344Z,40.10
2018-09-23T22:38:04.819Z,40.30
2018-09-23T22:40:33.266Z,39.80
2018-09-23T22:43:01.658Z,40.00
2018-09-23T22:45:30.119Z,39.80
2018-09-23T22:47:58.683Z,39.70
2018-09-23T22:50:27.054Z,39.60
2018-09-23T22:52:55.439Z,39.80
2018-09-23T22:55:23.849Z,39.60
2018-09-23T22:57:52.225Z,39.60
2018-09-23T23:00:20.578Z,39.90
2018-09-23T23:02:48.998Z,39.70
2018-09-23T23:05:17.453Z,39.30
2018-09-23T23:07:45.873Z,39.20
2018-09-23T23:10:14.279Z,39.10
2018-09-23T23:12:42.689Z,39.20
2018-09-23T23:15:11.077Z,39.20
2018-09-23T23:17:39.445Z,39.30
2018-09-23T23:20:08.094Z,39.10
2018-09-23T23:22:36.557Z,39.00
2018-09-23T23:25:04.976Z,39.00
2018-09-23T23:27:33.389Z,39.00
2018-09-23T23:30:01.758Z,39.00
2018-09-23T23:32:30.181Z,39.00
2018-09-23T23:34:58.583Z,38.60
2018-09-23T23:37:27.023Z,38.60
2018-09-23T23:39:55.628Z,39.20
2018-09-23T23:42:24.030Z,38.50
2018-09-23T23:44:52.469Z,38.70
2018-09-23T23:47:20.987Z,38.70
2018-09-23T23:49:49.332Z,38.70
2018-09-23T23:52:17.872Z,38.30
2018-09-23T23:54:46.382Z,38.20
2018-09-23T23:57:14.992Z,38.30
2018-09-23T23:59:43.444Z,38.10
